createdAt,value
2022-09-22T00:00:31.343Z,7.67
2022-09-22T00:01:31.421Z,7.58
2022-09-22T00:02:31.350Z,7.61
2022-09-22T00:03:31.279Z,7.60
2022-09-22T00:04:31.282Z,7.64
2022-09-22T00:05:31.276Z,7.63
2022-09-22T00:06:31.263Z,7.63
2022-09-22T00:07:31.230Z,7.63
2022-09-22T00:08:31.223Z,7.67
2022-09-22T00:09:31.209Z,7.61
2022-09-22T00:10:31.212Z,7.57
2022-09-22T00:11:31.186Z,7.58
2022-09-22T00:12:33.334Z,7.57
2022-09-22T00:13:31.149Z,7.57
2022-09-22T00:14:31.165Z,7.57
2022-09-22T00:15:31.137Z,7.55
2022-09-22T00:16:31.179Z,7.53
2022-09-22T00:17:31.216Z,7.52
2022-09-22T00:18:31.086Z,7.55
2022-09-22T00:19:31.074Z,7.50
2022-09-22T00:20:31.096Z,7.52
2022-09-22T00:21:31.735Z,7.53
2022-09-22T00:22:31.079Z,7.55
2022-09-22T00:23:31.026Z,7.58
2022-09-22T00:24:31.054Z,7.60
2022-09-22T00:25:30.999Z,7.67
2022-09-22T00:26:30.990Z,7.68
2022-09-22T00:27:31.002Z,7.72
2022-09-22T00:28:30.972Z,7.77
2022-09-22T00:29:31.038Z,7.75
2022-09-22T00:30:30.959Z,7.77
2022-09-22T00:31:30.961Z,7.80
2022-09-22T00:32:30.928Z,7.79
2022-09-22T00:33:30.896Z,7.80
2022-09-22T00:34:30.881Z,7.85
2022-09-22T00:35:30.891Z,7.83
2022-09-22T00:36:30.867Z,7.85
2022-09-22T00:37:30.842Z,7.80
2022-09-22T00:38:30.851Z,7.83
2022-09-22T00:39:30.901Z,7.80
2022-09-22T00:40:30.867Z,7.75
2022-09-22T00:41:30.813Z,7.75
2022-09-22T00:42:30.783Z,7.74
2022-09-22T00:43:30.772Z,7.69
2022-09-22T00:44:30.764Z,7.69
2022-09-22T00:45:30.767Z,7.67
2022-09-22T00:46:30.793Z,7.68
2022-09-22T00:47:30.761Z,7.75
2022-09-22T00:48:30.736Z,7.75
2022-09-22T00:49:30.705Z,7.82
2022-09-22T00:50:30.709Z,7.86
2022-09-22T00:51:30.682Z,7.90
2022-09-22T00:52:30.670Z,7.93
2022-09-22T00:53:30.671Z,7.98
2022-09-22T00:54:30.651Z,8.00
2022-09-22T00:55:30.649Z,8.05
2022-09-22T00:56:30.638Z,8.07
2022-09-22T00:57:30.606Z,8.04
2022-09-22T00:58:30.611Z,8.07
2022-09-22T00:59:30.590Z,8.08
2022-09-22T01:00:30.592Z,8.10
2022-09-22T01:01:30.575Z,8.15
2022-09-22T01:02:30.568Z,8.19
2022-09-22T01:03:30.543Z,8.29
2022-09-22T01:04:30.521Z,8.28
2022-09-22T01:05:30.508Z,8.36
2022-09-22T01:06:30.482Z,8.36
2022-09-22T01:07:30.486Z,8.40
2022-09-22T01:08:30.475Z,8.37
2022-09-22T01:09:30.470Z,8.38
2022-09-22T01:10:30.436Z,8.38
2022-09-22T01:11:30.417Z,8.36
2022-09-22T01:12:30.428Z,8.38
2022-09-22T01:13:30.397Z,8.37
2022-09-22T01:14:30.410Z,8.34
2022-09-22T01:15:30.359Z,8.28
2022-09-22T01:16:30.427Z,8.26
2022-09-22T01:17:30.339Z,8.18
2022-09-22T01:18:30.350Z,8.05
2022-09-22T01:19:30.360Z,8.01
2022-09-22T01:20:30.316Z,7.93
2022-09-22T01:21:30.302Z,7.89
2022-09-22T01:22:30.291Z,7.82
2022-09-22T01:23:30.259Z,7.80
2022-09-22T01:24:30.292Z,7.77
2022-09-22T01:25:30.242Z,7.74
2022-09-22T01:26:30.249Z,7.68
2022-09-22T01:27:30.207Z,7.67
2022-09-22T01:28:30.232Z,7.60
2022-09-22T01:29:30.190Z,7.55
2022-09-22T01:30:30.188Z,7.52
2022-09-22T01:31:30.247Z,7.49
2022-09-22T01:32:30.166Z,7.49
2022-09-22T01:33:30.175Z,7.42
2022-09-22T01:34:30.168Z,7.42
2022-09-22T01:35:30.134Z,7.37
2022-09-22T01:36:30.104Z,7.34
2022-09-22T01:37:35.035Z,7.31
2022-09-22T01:38:30.078Z,7.28
2022-09-22T01:39:30.078Z,7.28
2022-09-22T01:40:30.178Z,7.24
2022-09-22T01:41:30.025Z,7.21
2022-09-22T01:42:30.029Z,7.20
2022-09-22T01:43:30.001Z,7.23
2022-09-22T01:44:30.042Z,7.24
2022-09-22T01:45:29.997Z,7.20
2022-09-22T01:46:30.004Z,7.21
2022-09-22T01:47:29.955Z,7.20
2022-09-22T01:48:29.960Z,7.25
2022-09-22T01:49:29.942Z,7.25
2022-09-22T01:50:29.967Z,7.25
2022-09-22T01:51:29.927Z,7.25
2022-09-22T01:52:29.904Z,7.24
2022-09-22T01:53:29.887Z,7.20
2022-09-22T01:54:29.889Z,7.15
2022-09-22T01:55:29.860Z,7.07
2022-09-22T01:56:29.845Z,7.06
2022-09-22T01:57:29.853Z,7.02
2022-09-22T01:58:29.834Z,7.03
2022-09-22T01:59:29.802Z,6.95
2022-09-22T02:00:29.808Z,6.94
2022-09-22T02:01:29.878Z,6.91
2022-09-22T02:02:29.877Z,6.91
2022-09-22T02:03:29.793Z,6.85
2022-09-22T02:04:29.734Z,6.84
2022-09-22T02:05:29.750Z,6.80
2022-09-22T02:06:29.709Z,6.76
2022-09-22T02:07:29.698Z,6.76
2022-09-22T02:08:29.708Z,6.74
2022-09-22T02:09:29.669Z,6.71
2022-09-22T02:10:29.689Z,6.73
2022-09-22T02:11:29.663Z,6.70
2022-09-22T02:12:29.647Z,6.73
2022-09-22T02:13:29.622Z,6.64
2022-09-22T02:14:29.644Z,6.69
2022-09-22T02:15:29.684Z,6.67
2022-09-22T02:16:29.606Z,6.67
2022-09-22T02:17:34.405Z,6.64
2022-09-22T02:18:30.564Z,6.62
2022-09-22T02:19:29.551Z,6.62
2022-09-22T02:20:29.548Z,6.62
2022-09-22T02:21:29.532Z,6.61
2022-09-22T02:22:29.550Z,6.56
2022-09-22T02:23:29.515Z,6.55
2022-09-22T02:24:29.476Z,6.59
2022-09-22T02:25:29.489Z,6.56
2022-09-22T02:26:29.490Z,6.54
2022-09-22T02:27:29.437Z,6.52
2022-09-22T02:28:29.473Z,6.52
2022-09-22T02:29:29.449Z,6.48
2022-09-22T02:30:29.424Z,6.46
2022-09-22T02:31:29.492Z,6.46
2022-09-22T02:32:29.385Z,6.44
2022-09-22T02:33:29.365Z,6.52
2022-09-22T02:34:29.380Z,6.59
2022-09-22T02:35:29.364Z,6.58
2022-09-22T02:36:29.331Z,6.58
2022-09-22T02:37:32.177Z,6.61
2022-09-22T02:38:29.311Z,6.61
2022-09-22T02:39:29.296Z,6.59
2022-09-22T02:40:29.351Z,6.58
2022-09-22T02:41:29.279Z,6.56
2022-09-22T02:42:29.257Z,6.56
2022-09-22T02:43:29.233Z,6.54
2022-09-22T02:44:29.223Z,6.56
2022-09-22T02:45:29.232Z,6.58
2022-09-22T02:46:29.238Z,6.56
2022-09-22T02:47:29.190Z,6.54
2022-09-22T02:48:29.182Z,6.56
2022-09-22T02:49:29.160Z,6.56
2022-09-22T02:50:29.163Z,6.59
2022-09-22T02:51:29.148Z,6.55
2022-09-22T02:52:29.126Z,6.58
2022-09-22T02:53:29.119Z,6.58
2022-09-22T02:54:29.105Z,6.58
2022-09-22T02:55:29.093Z,6.59
2022-09-22T02:56:29.080Z,6.62
2022-09-22T02:57:29.095Z,6.62
2022-09-22T02:58:29.050Z,6.64
2022-09-22T02:59:29.042Z,6.64
2022-09-22T03:00:29.025Z,6.66
2022-09-22T03:01:29.031Z,6.62
2022-09-22T03:02:29.032Z,6.61
2022-09-22T03:03:28.973Z,6.64
2022-09-22T03:04:29.010Z,6.61
2022-09-22T03:05:28.940Z,6.58
2022-09-22T03:06:28.934Z,6.56
2022-09-22T03:07:28.943Z,6.55
2022-09-22T03:08:28.936Z,6.52
2022-09-22T03:09:28.902Z,6.52
2022-09-22T03:10:28.903Z,6.55
2022-09-22T03:11:28.874Z,6.54
2022-09-22T03:12:28.868Z,6.52
2022-09-22T03:13:28.869Z,6.51
2022-09-22T03:14:28.884Z,6.49
2022-09-22T03:15:28.860Z,6.48
2022-09-22T03:16:28.816Z,6.52
2022-09-22T03:17:28.803Z,6.51
2022-09-22T03:18:28.788Z,6.51
2022-09-22T03:19:28.764Z,6.46
2022-09-22T03:20:28.780Z,6.46
2022-09-22T03:21:28.755Z,6.46
2022-09-22T03:22:28.724Z,6.48
2022-09-22T03:23:28.717Z,6.51
2022-09-22T03:24:28.717Z,6.44
2022-09-22T03:25:28.705Z,6.46
2022-09-22T03:26:28.676Z,6.58
2022-09-22T03:27:28.663Z,6.61
2022-09-22T03:28:28.651Z,6.64
2022-09-22T03:29:28.666Z,6.67
2022-09-22T03:30:28.705Z,6.66
2022-09-22T03:31:28.609Z,6.62
2022-09-22T03:32:28.602Z,6.61
2022-09-22T03:33:28.575Z,6.59
2022-09-22T03:34:28.579Z,6.56
2022-09-22T03:35:28.595Z,6.54
2022-09-22T03:36:28.566Z,6.55
2022-09-22T03:37:28.531Z,6.55
2022-09-22T03:38:28.521Z,6.48
2022-09-22T03:39:28.519Z,6.46
2022-09-22T03:40:28.555Z,6.49
2022-09-22T03:41:28.502Z,6.43
2022-09-22T03:42:28.509Z,6.43
2022-09-22T03:43:28.465Z,6.41
2022-09-22T03:44:28.443Z,6.40
2022-09-22T03:45:28.442Z,6.36
2022-09-22T03:46:28.558Z,6.36
2022-09-22T03:47:28.410Z,6.31
2022-09-22T03:48:28.396Z,6.31
2022-09-22T03:49:28.368Z,6.30
2022-09-22T03:50:28.387Z,6.27
2022-09-22T03:51:28.374Z,6.27
2022-09-22T03:52:28.402Z,6.27
2022-09-22T03:53:28.321Z,6.27
2022-09-22T03:54:28.305Z,6.22
2022-09-22T03:55:28.291Z,6.25
2022-09-22T03:56:28.284Z,6.21
2022-09-22T03:57:28.294Z,6.22
2022-09-22T03:58:28.283Z,6.31
2022-09-22T03:59:28.241Z,6.33
2022-09-22T04:00:28.239Z,6.37
2022-09-22T04:01:28.255Z,6.36
2022-09-22T04:02:28.265Z,6.43
2022-09-22T04:03:28.205Z,6.40
2022-09-22T04:04:28.215Z,6.43
2022-09-22T04:05:28.166Z,6.43
2022-09-22T04:06:28.170Z,6.44
2022-09-22T04:07:28.139Z,6.41
2022-09-22T04:08:28.152Z,6.38
2022-09-22T04:09:28.106Z,6.40
2022-09-22T04:10:28.116Z,6.37
2022-09-22T04:11:28.095Z,6.31
2022-09-22T04:12:28.065Z,6.34
2022-09-22T04:13:28.058Z,6.33
2022-09-22T04:14:28.060Z,6.36
2022-09-22T04:15:28.023Z,6.37
2022-09-22T04:16:28.224Z,6.38
2022-09-22T04:17:28.002Z,6.43
2022-09-22T04:18:28.018Z,6.52
2022-09-22T04:19:27.978Z,6.55
2022-09-22T04:20:27.980Z,6.56
2022-09-22T04:21:28.018Z,6.59
2022-09-22T04:22:27.962Z,6.62
2022-09-22T04:23:27.950Z,6.61
2022-09-22T04:24:27.922Z,6.59
2022-09-22T04:25:27.909Z,6.58
2022-09-22T04:26:27.893Z,6.59
2022-09-22T04:27:27.899Z,6.58
2022-09-22T04:28:27.869Z,6.64
2022-09-22T04:29:27.854Z,6.59
2022-09-22T04:30:27.922Z,6.61
2022-09-22T04:31:27.865Z,6.61
2022-09-22T04:32:27.839Z,6.61
2022-09-22T04:33:27.800Z,6.62
2022-09-22T04:34:27.811Z,6.64
2022-09-22T04:35:27.770Z,6.71
2022-09-22T04:36:27.768Z,6.71
2022-09-22T04:37:27.744Z,6.69
2022-09-22T04:38:27.780Z,6.69
2022-09-22T04:39:27.720Z,6.64
2022-09-22T04:40:27.785Z,6.61
2022-09-22T04:41:27.696Z,6.61
2022-09-22T04:42:27.677Z,6.58
2022-09-22T04:43:27.670Z,6.55
2022-09-22T04:44:35.661Z,6.52
2022-09-22T04:45:27.665Z,6.49
2022-09-22T04:46:27.697Z,6.51
2022-09-22T04:47:27.628Z,6.49
2022-09-22T04:48:27.626Z,6.48
2022-09-22T04:49:27.606Z,6.51
2022-09-22T04:50:27.577Z,6.51
2022-09-22T04:51:27.590Z,6.51
2022-09-22T04:52:27.547Z,6.49
2022-09-22T04:53:27.533Z,6.46
2022-09-22T04:54:27.555Z,6.43
2022-09-22T04:55:27.547Z,6.48
2022-09-22T04:56:27.501Z,6.46
2022-09-22T04:57:27.505Z,6.49
2022-09-22T04:58:27.465Z,6.48
2022-09-22T04:59:27.525Z,6.51
2022-09-22T05:00:27.439Z,6.48
2022-09-22T05:01:27.488Z,6.48
2022-09-22T05:02:27.423Z,6.52
2022-09-22T05:03:27.443Z,6.51
2022-09-22T05:04:27.387Z,6.51
2022-09-22T05:05:34.999Z,6.52
2022-09-22T05:06:27.367Z,6.56
2022-09-22T05:07:27.403Z,6.55
2022-09-22T05:08:27.336Z,6.52
2022-09-22T05:09:27.322Z,6.56
2022-09-22T05:10:27.328Z,6.55
2022-09-22T05:11:27.343Z,6.56
2022-09-22T05:12:27.320Z,6.62
2022-09-22T05:13:27.291Z,6.59
2022-09-22T05:14:27.268Z,6.58
2022-09-22T05:15:27.296Z,6.58
2022-09-22T05:16:27.273Z,6.58
2022-09-22T05:17:27.245Z,6.59
2022-09-22T05:18:27.217Z,6.62
2022-09-22T05:19:27.230Z,6.64
2022-09-22T05:20:27.182Z,6.62
2022-09-22T05:21:27.200Z,6.61
2022-09-22T05:22:27.193Z,6.61
2022-09-22T05:23:27.148Z,6.59
2022-09-22T05:24:27.126Z,6.56
2022-09-22T05:25:27.110Z,6.55
2022-09-22T05:26:27.139Z,6.59
2022-09-22T05:27:27.094Z,6.59
2022-09-22T05:28:27.096Z,6.61
2022-09-22T05:29:28.062Z,6.64
2022-09-22T05:30:27.052Z,6.70
2022-09-22T05:31:27.078Z,6.74
2022-09-22T05:32:27.042Z,6.73
2022-09-22T05:33:27.043Z,6.79
2022-09-22T05:34:27.032Z,6.79
2022-09-22T05:35:27.076Z,6.85
2022-09-22T05:36:26.995Z,6.91
2022-09-22T05:37:26.960Z,6.87
2022-09-22T05:38:26.945Z,6.89
2022-09-22T05:39:26.934Z,6.87
2022-09-22T05:40:26.945Z,6.89
2022-09-22T05:41:26.964Z,6.87
2022-09-22T05:42:26.916Z,6.88
2022-09-22T05:43:26.921Z,6.89
2022-09-22T05:44:26.890Z,6.91
2022-09-22T05:45:26.923Z,6.85
2022-09-22T05:46:26.871Z,6.91
2022-09-22T05:47:26.828Z,6.87
2022-09-22T05:48:31.032Z,6.85
2022-09-22T05:49:26.836Z,6.88
2022-09-22T05:50:26.801Z,6.94
2022-09-22T05:51:26.787Z,6.94
2022-09-22T05:52:26.806Z,6.97
2022-09-22T05:53:26.754Z,6.97
2022-09-22T05:54:26.757Z,7.05
2022-09-22T05:55:26.747Z,7.07
2022-09-22T05:57:26.444Z,7.15
2022-09-22T05:58:26.424Z,7.15
2022-09-22T05:59:26.435Z,7.17
2022-09-22T06:00:26.395Z,7.21
2022-09-22T06:01:26.487Z,7.25
2022-09-22T06:02:26.838Z,7.28
2022-09-22T06:03:26.355Z,7.34
2022-09-22T06:04:26.355Z,7.37
2022-09-22T06:05:26.469Z,7.40
2022-09-22T06:06:26.338Z,7.43
2022-09-22T06:07:26.335Z,7.48
2022-09-22T06:08:26.305Z,7.50
2022-09-22T06:09:26.283Z,7.50
2022-09-22T06:10:26.347Z,7.57
2022-09-22T06:11:26.272Z,7.60
2022-09-22T06:12:26.268Z,7.67
2022-09-22T06:13:26.227Z,7.68
2022-09-22T06:14:26.248Z,7.74
2022-09-22T06:15:26.196Z,7.74
2022-09-22T06:16:26.224Z,7.71
2022-09-22T06:17:26.199Z,7.77
2022-09-22T06:18:26.157Z,7.80
2022-09-22T06:19:26.173Z,7.85
2022-09-22T06:20:26.206Z,7.87
2022-09-22T06:21:26.130Z,7.87
2022-09-22T06:22:26.151Z,7.93
2022-09-22T06:23:26.211Z,7.97
2022-09-22T06:24:26.170Z,7.97
2022-09-22T06:25:26.087Z,8.02
2022-09-22T06:26:26.093Z,8.10
2022-09-22T06:27:26.050Z,8.12
2022-09-22T06:28:26.056Z,8.19
2022-09-22T06:29:26.037Z,8.22
2022-09-22T06:30:26.060Z,8.28
2022-09-22T06:31:26.102Z,8.30
2022-09-22T06:32:26.061Z,8.40
2022-09-22T06:33:26.000Z,8.45
2022-09-22T06:34:25.968Z,8.61
2022-09-22T06:35:25.944Z,8.74
2022-09-22T06:36:25.981Z,8.95
2022-09-22T06:37:25.991Z,8.99
2022-09-22T06:38:25.953Z,8.99
2022-09-22T06:39:25.898Z,8.98
2022-09-22T06:40:26.002Z,8.96
2022-09-22T06:41:25.913Z,8.91
2022-09-22T06:42:25.857Z,8.92
2022-09-22T06:43:25.866Z,8.99
2022-09-22T06:44:25.869Z,8.99
2022-09-22T06:45:25.901Z,8.95
2022-09-22T06:46:25.836Z,8.98
2022-09-22T06:47:25.821Z,8.96
2022-09-22T06:48:25.812Z,8.92
2022-09-22T06:49:25.802Z,8.87
2022-09-22T06:50:28.917Z,8.87
2022-09-22T06:51:25.779Z,8.84
2022-09-22T06:52:25.805Z,8.86
2022-09-22T06:53:27.494Z,8.92
2022-09-22T06:54:25.889Z,8.95
2022-09-22T06:55:25.701Z,8.95
2022-09-22T06:56:25.715Z,8.99
2022-09-22T06:57:25.714Z,9.02
2022-09-22T06:58:25.673Z,8.99
2022-09-22T06:59:25.678Z,9.05
2022-09-22T07:00:25.663Z,9.04
2022-09-22T07:01:25.727Z,9.10
2022-09-22T07:02:25.660Z,9.21
2022-09-22T07:03:25.610Z,9.51
2022-09-22T07:04:25.610Z,9.86
2022-09-22T07:05:25.598Z,10.04
2022-09-22T07:06:25.586Z,10.11
2022-09-22T07:07:25.571Z,10.11
2022-09-22T07:08:25.548Z,10.17
2022-09-22T07:09:25.585Z,10.09
2022-09-22T07:10:25.587Z,10.07
2022-09-22T07:11:25.496Z,10.01
2022-09-22T07:12:25.510Z,10.02
2022-09-22T07:13:25.490Z,10.04
2022-09-22T07:14:25.478Z,10.02
2022-09-22T07:15:25.470Z,10.01
2022-09-22T07:16:25.533Z,10.01
2022-09-22T07:17:25.453Z,9.99
2022-09-22T07:18:25.439Z,10.04
2022-09-22T07:19:25.426Z,10.08
2022-09-22T07:20:25.404Z,10.22
2022-09-22T07:21:25.429Z,10.33
2022-09-22T07:22:25.375Z,10.48
2022-09-22T07:23:25.384Z,10.60
2022-09-22T07:24:25.351Z,10.63
2022-09-22T07:25:25.341Z,10.67
2022-09-22T07:26:25.318Z,10.71
2022-09-22T07:27:25.309Z,10.68
2022-09-22T07:28:25.299Z,10.67
2022-09-22T07:29:25.350Z,10.67
2022-09-22T07:30:25.333Z,10.63
2022-09-22T07:31:28.803Z,10.63
2022-09-22T07:32:25.230Z,10.63
2022-09-22T07:33:25.239Z,10.66
2022-09-22T07:34:25.201Z,10.67
2022-09-22T07:35:25.205Z,10.68
2022-09-22T07:36:25.174Z,10.70
2022-09-22T07:37:25.193Z,10.74
2022-09-22T07:38:25.191Z,10.79
2022-09-22T07:39:25.160Z,10.79
2022-09-22T07:40:25.180Z,10.78
2022-09-22T07:41:25.117Z,10.76
2022-09-22T07:42:25.117Z,10.79
2022-09-22T07:43:25.112Z,10.79
2022-09-22T07:44:25.075Z,10.85
2022-09-22T07:45:25.076Z,10.89
2022-09-22T07:46:25.089Z,10.92
2022-09-22T07:47:25.093Z,10.97
2022-09-22T07:48:25.031Z,11.03
2022-09-22T07:49:25.043Z,11.10
2022-09-22T07:50:25.029Z,11.18
2022-09-22T07:51:25.010Z,11.19
2022-09-22T07:52:24.981Z,11.25
2022-09-22T07:53:24.990Z,11.29
2022-09-22T07:54:25.020Z,11.36
2022-09-22T07:55:24.957Z,11.40
2022-09-22T07:56:24.929Z,11.43
2022-09-22T07:57:24.910Z,11.49
2022-09-22T07:58:24.932Z,11.55
2022-09-22T07:59:24.903Z,11.61
2022-09-22T08:00:24.921Z,11.69
2022-09-22T08:01:24.885Z,11.90
2022-09-22T08:02:24.875Z,12.24
2022-09-22T08:03:24.826Z,12.59
2022-09-22T08:04:24.830Z,12.79
2022-09-22T08:05:24.873Z,12.87
2022-09-22T08:06:24.785Z,13.00
2022-09-22T08:07:24.782Z,13.01
2022-09-22T08:08:24.761Z,13.01
2022-09-22T08:09:24.780Z,13.00
2022-09-22T08:10:24.759Z,13.01
2022-09-22T08:11:24.764Z,13.01
2022-09-22T08:12:24.716Z,13.01
2022-09-22T08:13:24.751Z,12.97
2022-09-22T08:14:24.716Z,12.92
2022-09-22T08:15:27.128Z,12.87
2022-09-22T08:16:24.697Z,12.83
2022-09-22T08:17:24.643Z,12.78
2022-09-22T08:18:24.633Z,12.78
2022-09-22T08:19:24.626Z,12.78
2022-09-22T08:20:24.614Z,12.86
2022-09-22T08:21:24.608Z,12.89
2022-09-22T08:22:24.594Z,12.87
2022-09-22T08:23:24.548Z,12.85
2022-09-22T08:24:24.555Z,12.89
2022-09-22T08:25:24.527Z,12.87
2022-09-22T08:26:24.562Z,12.82
2022-09-22T08:27:24.517Z,12.82
2022-09-22T08:28:24.509Z,12.85
2022-09-22T08:29:24.552Z,13.05
2022-09-22T08:30:24.483Z,13.30
2022-09-22T08:31:24.497Z,13.46
2022-09-22T08:32:24.460Z,13.73
2022-09-22T08:33:24.430Z,14.00
2022-09-22T08:34:24.496Z,14.18
2022-09-22T08:35:24.380Z,14.29
2022-09-22T08:36:24.374Z,14.29
2022-09-22T08:37:24.379Z,14.29
2022-09-22T08:38:24.367Z,14.35
2022-09-22T08:39:24.328Z,14.45
2022-09-22T08:40:24.385Z,14.47
2022-09-22T08:41:24.310Z,14.52
2022-09-22T08:42:24.315Z,14.68
2022-09-22T08:43:24.320Z,14.81
2022-09-22T08:44:24.267Z,14.75
2022-09-22T08:45:26.999Z,14.61
2022-09-22T08:46:24.268Z,14.52
2022-09-22T08:47:24.223Z,14.47
2022-09-22T08:48:24.227Z,14.47
2022-09-22T08:49:24.203Z,14.58
2022-09-22T08:50:24.184Z,14.68
2022-09-22T08:51:24.170Z,14.73
2022-09-22T08:52:24.164Z,14.77
2022-09-22T08:53:24.144Z,15.01
2022-09-22T08:54:24.144Z,15.35
2022-09-22T08:55:24.101Z,15.43
2022-09-22T08:56:24.097Z,15.38
2022-09-22T08:57:24.075Z,15.27
2022-09-22T08:58:24.056Z,15.11
2022-09-22T08:59:24.046Z,15.07
2022-09-22T09:00:24.099Z,15.03
2022-09-22T09:01:24.157Z,14.95
2022-09-22T09:02:24.028Z,14.96
2022-09-22T09:03:23.997Z,14.96
2022-09-22T09:04:24.149Z,14.96
2022-09-22T09:05:23.989Z,15.02
2022-09-22T09:06:23.986Z,15.09
2022-09-22T09:07:23.951Z,15.14
2022-09-22T09:08:23.926Z,15.23
2022-09-22T09:09:23.959Z,15.25
2022-09-22T09:10:23.916Z,15.32
2022-09-22T09:12:23.908Z,15.47
2022-09-22T09:13:23.846Z,15.41
2022-09-22T09:14:23.848Z,15.38
2022-09-22T09:15:23.819Z,15.41
2022-09-22T09:16:23.852Z,15.38
2022-09-22T09:17:23.819Z,15.41
2022-09-22T09:18:23.794Z,15.50
2022-09-22T09:19:23.794Z,15.54
2022-09-22T09:20:23.754Z,15.54
2022-09-22T09:21:23.721Z,15.49
2022-09-22T09:22:23.712Z,15.41
2022-09-22T09:23:23.790Z,15.34
2022-09-22T09:25:25.699Z,15.31
2022-09-22T09:26:23.664Z,15.29
2022-09-22T09:27:23.634Z,15.25
2022-09-22T09:28:28.250Z,15.32
2022-09-22T09:29:23.630Z,15.28
2022-09-22T09:30:23.606Z,15.28
2022-09-22T09:31:23.619Z,15.32
2022-09-22T09:32:23.590Z,15.34
2022-09-22T09:33:23.575Z,15.41
2022-09-22T09:34:23.535Z,15.43
2022-09-22T09:35:23.557Z,15.43
2022-09-22T09:36:23.532Z,15.49
2022-09-22T09:37:23.502Z,15.60
2022-09-22T09:38:23.536Z,15.65
2022-09-22T09:39:23.485Z,15.67
2022-09-22T09:40:23.477Z,15.68
2022-09-22T09:41:23.441Z,15.67
2022-09-22T09:42:23.449Z,15.72
2022-09-22T09:43:23.407Z,15.80
2022-09-22T09:44:23.417Z,15.86
2022-09-22T09:45:23.379Z,16.04
2022-09-22T09:46:23.413Z,16.25
2022-09-22T09:47:23.351Z,16.39
2022-09-22T09:48:23.355Z,16.46
2022-09-22T09:49:23.331Z,16.43
2022-09-22T09:50:23.366Z,16.39
2022-09-22T09:51:23.307Z,16.46
2022-09-22T09:52:23.359Z,16.58
2022-09-22T09:53:23.339Z,16.60
2022-09-22T09:54:23.281Z,16.50
2022-09-22T09:55:26.602Z,16.41
2022-09-22T09:56:23.243Z,16.38
2022-09-22T09:57:27.574Z,16.31
2022-09-22T09:58:23.233Z,16.30
2022-09-22T09:59:23.197Z,16.23
2022-09-22T10:00:23.240Z,16.23
2022-09-22T10:01:23.218Z,16.27
2022-09-22T10:02:23.184Z,16.25
2022-09-22T10:03:23.168Z,16.20
2022-09-22T10:04:23.140Z,16.17
2022-09-22T10:05:23.127Z,16.17
2022-09-22T10:06:23.122Z,16.14
2022-09-22T10:07:23.142Z,16.15
2022-09-22T10:08:23.120Z,16.14
2022-09-22T10:09:23.076Z,16.11
2022-09-22T10:10:23.058Z,16.09
2022-09-22T10:11:23.038Z,16.17
2022-09-22T10:12:23.017Z,16.25
2022-09-22T10:13:23.013Z,16.31
2022-09-22T10:14:22.989Z,16.27
2022-09-22T10:15:22.968Z,16.27
2022-09-22T10:16:23.080Z,16.27
2022-09-22T10:17:22.942Z,16.25
2022-09-22T10:18:22.946Z,16.24
2022-09-22T10:19:22.943Z,16.23
2022-09-22T10:20:22.922Z,16.28
2022-09-22T10:21:22.900Z,16.39
2022-09-22T10:22:22.881Z,16.50
2022-09-22T10:23:22.897Z,16.63
2022-09-22T10:24:22.864Z,16.70
2022-09-22T10:25:22.885Z,16.78
2022-09-22T10:26:22.864Z,17.01
2022-09-22T10:27:22.831Z,17.07
2022-09-22T10:28:22.818Z,17.03
2022-09-22T10:29:22.800Z,17.00
2022-09-22T10:30:22.827Z,16.98
2022-09-22T10:31:22.794Z,16.91
2022-09-22T10:32:22.749Z,16.91
2022-09-22T10:33:22.753Z,16.83
2022-09-22T10:34:22.714Z,16.85
2022-09-22T10:35:22.727Z,17.01
2022-09-22T10:36:22.681Z,17.19
2022-09-22T10:37:22.694Z,17.28
2022-09-22T10:38:22.666Z,17.31
2022-09-22T10:39:22.647Z,17.33
2022-09-22T10:40:23.025Z,17.34
2022-09-22T10:41:22.696Z,17.38
2022-09-22T10:42:22.622Z,17.51
2022-09-22T10:43:22.606Z,17.49
2022-09-22T10:44:40.126Z,17.63
2022-09-22T10:45:23.605Z,17.49
2022-09-22T10:46:22.700Z,17.44
2022-09-22T10:47:26.716Z,17.34
2022-09-22T10:48:22.619Z,17.31
2022-09-22T10:49:22.528Z,17.46
2022-09-22T10:50:22.524Z,17.54
2022-09-22T10:51:22.497Z,17.49
2022-09-22T10:52:22.488Z,17.43
2022-09-22T10:53:22.483Z,17.38
2022-09-22T10:54:22.475Z,17.40
2022-09-22T10:55:22.427Z,17.51
2022-09-22T10:56:22.411Z,17.56
2022-09-22T10:57:22.412Z,17.55
2022-09-22T10:58:22.383Z,17.55
2022-09-22T10:59:22.435Z,17.59
2022-09-22T11:00:22.359Z,17.59
2022-09-22T11:01:22.428Z,17.63
2022-09-22T11:02:22.376Z,17.68
2022-09-22T11:03:22.313Z,17.74
2022-09-22T11:04:22.371Z,17.82
2022-09-22T11:05:22.355Z,17.79
2022-09-22T11:06:22.441Z,17.71
2022-09-22T11:07:22.300Z,17.62
2022-09-22T11:08:22.257Z,17.55
2022-09-22T11:09:22.272Z,17.56
2022-09-22T11:10:22.244Z,17.58
2022-09-22T11:11:22.264Z,17.54
2022-09-22T11:12:22.199Z,17.48
2022-09-22T11:13:22.293Z,17.44
2022-09-22T11:14:22.245Z,17.46
2022-09-22T11:15:22.366Z,17.43
2022-09-22T11:16:22.159Z,17.44
2022-09-22T11:17:22.156Z,17.40
2022-09-22T11:18:22.187Z,17.44
2022-09-22T11:19:22.128Z,17.62
2022-09-22T11:20:22.135Z,17.70
2022-09-22T11:21:22.145Z,17.74
2022-09-22T11:22:22.177Z,17.71
2022-09-22T11:23:22.140Z,17.68
2022-09-22T11:24:22.111Z,17.64
2022-09-22T11:25:22.028Z,17.70
2022-09-22T11:26:22.203Z,17.81
2022-09-22T11:27:22.093Z,17.86
2022-09-22T11:28:22.066Z,17.84
2022-09-22T11:29:21.979Z,17.84
2022-09-22T11:30:21.950Z,17.89
2022-09-22T11:31:21.957Z,17.96
2022-09-22T11:32:21.918Z,18.00
2022-09-22T11:33:21.944Z,18.03
2022-09-22T11:34:21.941Z,18.21
2022-09-22T11:35:21.886Z,18.36
2022-09-22T11:36:21.895Z,18.42
2022-09-22T11:37:21.855Z,18.41
2022-09-22T11:38:21.868Z,18.39
2022-09-22T11:39:21.845Z,18.29
2022-09-22T11:40:21.847Z,18.18
2022-09-22T11:41:21.809Z,18.15
2022-09-22T11:42:21.836Z,18.17
2022-09-22T11:43:21.814Z,18.18
2022-09-22T11:44:21.766Z,18.18
2022-09-22T11:45:21.778Z,18.17
2022-09-22T11:46:21.835Z,18.15
2022-09-22T11:47:21.759Z,18.23
2022-09-22T11:48:21.702Z,18.25
2022-09-22T11:49:21.715Z,18.23
2022-09-22T11:50:21.808Z,18.27
2022-09-22T11:51:21.696Z,18.25
2022-09-22T11:52:21.656Z,18.23
2022-09-22T11:53:21.635Z,18.21
2022-09-22T11:54:21.645Z,18.15
2022-09-22T11:55:21.622Z,18.10
2022-09-22T11:56:21.619Z,18.08
2022-09-22T11:57:31.651Z,18.08
2022-09-22T11:58:21.568Z,18.08
2022-09-22T11:59:21.575Z,18.07
2022-09-22T12:00:21.638Z,18.02
2022-09-22T12:01:21.532Z,18.11
2022-09-22T12:02:21.745Z,18.21
2022-09-22T12:03:21.639Z,18.29
2022-09-22T12:04:21.562Z,18.27
2022-09-22T12:05:21.521Z,18.27
2022-09-22T12:06:21.461Z,18.25
2022-09-22T12:07:21.454Z,18.23
2022-09-22T12:08:21.452Z,18.18
2022-09-22T12:09:21.426Z,18.20
2022-09-22T12:10:21.423Z,18.23
2022-09-22T12:11:21.393Z,18.20
2022-09-22T12:12:21.428Z,18.18
2022-09-22T12:13:21.393Z,18.20
2022-09-22T12:14:21.353Z,18.26
2022-09-22T12:15:21.494Z,18.32
2022-09-22T12:16:21.402Z,18.36
2022-09-22T12:17:23.491Z,18.33
2022-09-22T12:18:21.295Z,18.33
2022-09-22T12:19:21.297Z,18.37
2022-09-22T12:20:21.267Z,18.42
2022-09-22T12:21:21.283Z,18.47
2022-09-22T12:22:21.246Z,18.47
2022-09-22T12:23:21.228Z,18.47
2022-09-22T12:24:21.197Z,18.51
2022-09-22T12:25:37.711Z,18.51
2022-09-22T12:26:22.213Z,18.50
2022-09-22T12:27:21.175Z,18.54
2022-09-22T12:28:21.165Z,18.55
2022-09-22T12:29:21.139Z,18.55
2022-09-22T12:30:21.150Z,18.62
2022-09-22T12:31:21.216Z,18.69
2022-09-22T12:32:21.122Z,18.72
2022-09-22T12:33:21.108Z,18.67
2022-09-22T12:34:21.098Z,18.70
2022-09-22T12:35:21.070Z,18.73
2022-09-22T12:36:21.058Z,18.80
2022-09-22T12:37:21.044Z,18.82
2022-09-22T12:38:21.043Z,18.94
2022-09-22T12:39:21.015Z,19.08
2022-09-22T12:40:21.010Z,19.22
2022-09-22T12:41:20.985Z,19.21
2022-09-22T12:42:21.000Z,19.26
2022-09-22T12:43:20.966Z,19.23
2022-09-22T12:44:20.934Z,19.31
2022-09-22T12:45:20.957Z,19.31
2022-09-22T12:46:21.009Z,19.23
2022-09-22T12:47:20.916Z,19.18
2022-09-22T12:48:20.905Z,19.11
2022-09-22T12:49:20.883Z,19.06
2022-09-22T12:50:20.873Z,18.94
2022-09-22T12:51:20.837Z,18.91
2022-09-22T12:52:20.857Z,18.92
2022-09-22T12:53:20.829Z,18.90
2022-09-22T12:54:20.803Z,18.82
2022-09-22T12:55:20.796Z,18.82
2022-09-22T12:56:20.811Z,18.80
2022-09-22T12:57:20.784Z,18.82
2022-09-22T12:58:20.804Z,18.84
2022-09-22T12:59:20.753Z,18.88
2022-09-22T13:00:20.739Z,18.91
2022-09-22T13:01:20.770Z,18.94
2022-09-22T13:02:20.826Z,19.00
2022-09-22T13:03:20.698Z,19.06
2022-09-22T13:04:20.674Z,19.10
2022-09-22T13:05:20.663Z,19.21
2022-09-22T13:06:20.648Z,19.47
2022-09-22T13:07:20.631Z,20.10
2022-09-22T13:08:20.598Z,20.94
2022-09-22T13:09:20.643Z,21.71